Thibodaux, LA (70302)

8:14 AM CST on March 06, 2015 (GMT -0600)
Abbey Heights | Change Station
CLOSE
Current Station
Personal Weather Station
Location: Thibodaux, LA
Elevation: 13 ft
Nearby Weather Stations

Elev 13 ft 29.82 °N, 90.84 °W | Updated 11 minutes ago

Clear
Clear
32.4 °F
Feels Like 23 °F
N
13.0
Wind Variable Wind from North
Gusts 16.0 mph

Today
High -- | Low -- °F
--% Chance of Precip.
Yesterday
High -- | Low -- °F
Precip. -- in
6:23 AM 6:05 PM
Full, 99% visible
Pressure 30.48 in
Visibility 7.0 miles
Clouds Scattered Clouds 15000 ft
Windchill 23 °F
Dew Point 23 °F
Humidity 68%
Rainfall in
Snow Depth Not available.
UV 1 out of 12
Pollen 9.40 out of 12
Air Quality Not available.
Flu Activity Not available.
METAR KHUM 061347Z 35011G18KT 7SM SCT150 00/M05 A3048 RMK ATIS I VA/RY36...MS

More Conditions Fewer Conditions

Pressure 30.48 in
Visibility 7.0 miles
Clouds Scattered Clouds 15000 ft
Windchill 23 °F
Dew Point 23 °F
Humidity 68%
Rainfall in
Snow Depth Not available.
UV 1 out of 12
Pollen 9.40 out of 12
Air Quality Not available.
Flu Activity Not available.
METAR KHUM 061347Z 35011G18KT 7SM SCT150 00/M05 A3048 RMK ATIS I VA/RY36...MS

More Conditions Fewer Conditions

10-Day Weather Forecast

Almanac

Astronomy

Mar. 06, 2015 Rise Set
Actual Time
Civil Twilight
Nautical Twilight
Astronomical Twilight
Moon
Length of Visible Light
Length of Day
Tomorrow will be .
, % of the Moon is Illuminated

Today's Extremes

State Highs State Lows

Community

WunderPhotos

Upload Photos

1,803,275 photos uploaded!

WunderBlogs® & News

Nearby

Air Quality

  Air Quality AQ Index Pollutant
Not available.

Snow Depth

Station Depth Elevation

Earthquake Activity

City Distance Mag. Time & Date
Minimum magnitude displayed is 2.5.

Coastal Water Temperatures

Place Temperature

Nearby Weather Stations